This is the latest recevied weather packets stored in our database for station/object YO6RK-13. If no packets are shown the sender has not sent any weather packets the latest 10 day(s).
| Time | Temp. | Humidity | Pressure | Rain* | Wind** | Luminosity | Snow |
|---|---|---|---|---|---|---|---|
| 1777788916 | 6.67° C | 74% | 1020.4 hPa | 0 mm | - | - | - |
| 1777788312 | 5° C | 76% | 1020.6 hPa | 0 mm | - | - | - |
| 1777788028 | 5° C | 76% | 1020.6 hPa | 0 mm | - | - | - |
| 1777787418 | 5.56° C | 76% | 1020.7 hPa | 0 mm | - | - | - |
| 1777785629 | 3.89° C | 79% | 1020.6 hPa | 0 mm | - | - | - |
| 1777785027 | 3.33° C | 82% | 1020.5 hPa | 0 mm | - | - | - |
| 1777782921 | 0.56° C | 91% | 1020.4 hPa | 0 mm | - | - | - |
| 1777782327 | 0° C | 92% | 1020.4 hPa | 0 mm | - | - | - |
| 1777777814 | -1.67° C | 92% | 1019.8 hPa | 0 mm | - | - | - |
| 1777774235 | -1.11° C | 91% | 1019.5 hPa | 0 mm | - | - | - |
| 1777771825 | -0.56° C | 91% | 1019.5 hPa | 0 mm | - | - | - |
| 1777771230 | 0° C | 91% | 1019.8 hPa | 0 mm | - | - | - |
| 1777765236 | 0.56° C | 91% | 1019.7 hPa | 0 mm | - | - | - |
| 1777764318 | 1.11° C | 90% | 1019.8 hPa | 0 mm | - | - | - |
| 1777764033 | 1.11° C | 90% | 1019.6 hPa | 0 mm | - | - | - |
| 1777762228 | 1.11° C | 90% | 1019.7 hPa | 0 mm | - | - | - |
| 1777761627 | 1.67° C | 90% | 1019.8 hPa | 0 mm | - | - | - |
| 1777760424 | 2.22° C | 90% | 1020 hPa | 0 mm | - | - | - |
| 1777759532 | 2.22° C | 90% | 1020 hPa | 0 mm | - | - | - |
| 1777755631 | 2.78° C | 90% | 1020.2 hPa | 0 mm | - | - | - |
| 1777754412 | 3.33° C | 89% | 1020.1 hPa | 0 mm | - | - | - |
| 1777754136 | 3.33° C | 89% | 1020.1 hPa | 0 mm | - | - | - |
| 1777753534 | 3.33° C | 89% | 1020.1 hPa | 0 mm | - | - | - |
| 1777752649 | 3.89° C | 89% | 1020.1 hPa | 0 mm | - | - | - |
| 1777751422 | 3.89° C | 89% | 1020.1 hPa | 0 mm | - | - | - |
* Rain latest hour (hover to see other rain measurements)
** Current wind speed in m/s (hover to see current wind gust speed)